Lake Dallas, Texas
Current Conditions -  °F | °C
As of 10:53 AM on Sunday 23 Nov 2014 (Local Time) from KDTO Reporting Station
Clear Clear  
Wind Chill: 65°   Ceiling: Unl
Heat Index: 65°   Visibility: 10mi
Dew Point: 51°   Wind: 16mph
Humidity: 61%   Direction: 210°SSW
Pressure: 29.47"   Gusts: 24mph
Location:  33.12°N, 97.03°W
Report Text: KDTO 231653Z 21014G21KT 10SM CLR 18/11 A2947 RMK AO2 SLP975 T01830106
Loading
Personal Weather Stations






























Interactive Weather Map New forecast layout! Learn more

10-Day Weather Forecast

Advertisements
Track Severe Weather on mobile